Time;durP1;ratioP1;P1;durP2;ratioP2;P2;SDS_P1;SDS_P2;PMS_P1;PMS_P2;Temp;Humidity;BMP_temperature;BMP_pressure;BME280_temperature;BME280_humidity;BME280_pressure;Samples;Min_cycle;Max_cycle;Signal;HPM_P1;HPM_P2
2024/01/25 00:02:25;;;;;;;27.15;4.38;;;;;;;;;;5097337;28;20098;-92
2024/01/25 00:04:51;;;;;;;29.60;4.60;;;;;;;;;;5090928;28;20055;-92
2024/01/25 00:07:17;;;;;;;24.08;4.10;;;;;;;;;;5077760;28;20071;-89
2024/01/25 00:09:43;;;;;;;25.13;4.28;;;;;;;;;;5079401;28;20100;-93
2024/01/25 00:12:09;;;;;;;22.52;3.90;;;;;;;;;;5096927;28;20045;-93
2024/01/25 00:14:35;;;;;;;;;;;;;;;;;;5078099;28;20126;-92
2024/01/25 00:17:01;;;;;;;29.02;5.40;;;;;;;;;;5113986;28;19973;-91
2024/01/25 00:19:27;;;;;;;32.72;4.50;;;;;;;;;;5099676;27;20051;-92
2024/01/25 00:21:53;;;;;;;26.20;4.28;;;;;;;;;;5118848;27;20506;-93
2024/01/25 00:24:19;;;;;;;29.35;4.38;;;;;;;;;;5115204;27;20180;-93
2024/01/25 00:26:45;;;;;;;28.15;4.85;;;;;;;;;;5102576;27;20035;-92
2024/01/25 00:29:11;;;;;;;26.02;4.38;;;;;;;;;;5101560;27;20091;-93
2024/01/25 00:31:37;;;;;;;;;;;;;;;;;;5106672;28;20123;-92
2024/01/25 00:34:03;;;;;;;31.13;4.82;;;;;;;;;;5082635;28;19923;-93
2024/01/25 00:36:29;;;;;;;;;;;;;;;;;;5104284;27;20110;-92
2024/01/25 00:38:56;;;;;;;26.33;3.90;;;;;;;;;;5119212;27;19962;-92
2024/01/25 00:41:22;;;;;;;;;;;;;;;;;;5085574;27;20054;-93
2024/01/25 00:43:48;;;;;;;24.73;3.83;;;;;;;;;;5117540;27;19968;-91
2024/01/25 00:46:14;;;;;;;35.03;4.93;;;;;;;;;;5099312;27;20047;-91
2024/01/25 00:48:42;;;;;;;27.08;4.68;;;;;;;;;;5102125;27;20093;-92
2024/01/25 00:51:13;;;;;;;32.13;5.13;;;;;;;;;;5102099;27;20047;-88
2024/01/25 00:53:39;;;;;;;22.80;4.55;;;;;;;;;;5119313;27;20043;-93
2024/01/25 00:56:05;;;;;;;;;;;;;;;;;;5092574;28;20075;-92
2024/01/25 00:58:31;;;;;;;29.13;4.00;;;;;;;;;;5097390;28;19966;-92
2024/01/25 01:00:57;;;;;;;;;;;;;;;;;;5099243;28;20477;-92
2024/01/25 01:03:23;;;;;;;30.48;4.07;;;;;;;;;;5085195;27;19972;-92
2024/01/25 01:05:50;;;;;;;29.88;4.75;;;;;;;;;;5101812;27;20103;-92
2024/01/25 01:08:16;;;;;;;;;;;;;;;;;;5099952;27;20046;-91
2024/01/25 01:10:42;;;;;;;27.63;4.55;;;;;;;;;;5119176;27;19919;-92
2024/01/25 01:13:08;;;;;;;31.55;4.38;;;;;;;;;;5101044;27;20043;-92
2024/01/25 01:15:34;;;;;;;26.60;4.45;;;;;;;;;;5081360;28;20078;-93
2024/01/25 01:18:00;;;;;;;31.77;4.45;;;;;;;;;;5097900;28;20051;-90
2024/01/25 01:20:26;;;;;;;27.63;5.00;;;;;;;;;;5098120;28;20039;-92
2024/01/25 01:22:53;;;;;;;30.70;5.13;;;;;;;;;;5097993;28;20039;-91
2024/01/25 01:25:19;;;;;;;26.73;4.85;;;;;;;;;;5088081;28;20054;-92
2024/01/25 01:27:45;;;;;;;;;;;;;;;;;;5097178;27;20051;-93
2024/01/25 01:30:11;;;;;;;31.25;4.55;;;;;;;;;;5100806;28;19919;-87
2024/01/25 01:32:37;;;;;;;35.85;5.68;;;;;;;;;;5097380;28;20093;-93
2024/01/25 01:35:03;;;;;;;;;;;;;;;;;;5103590;27;20532;-88
2024/01/25 01:37:29;;;;;;;36.10;4.93;;;;;;;;;;5108787;28;19919;-92
2024/01/25 01:39:55;;;;;;;38.53;5.10;;;;;;;;;;5097819;28;20448;-91
2024/01/25 01:42:22;;;;;;;35.95;4.85;;;;;;;;;;5080775;28;20052;-92
2024/01/25 01:44:50;;;;;;;30.02;4.63;;;;;;;;;;5115145;28;20079;-92
2024/01/25 01:47:16;;;;;;;36.60;5.18;;;;;;;;;;5082179;27;20043;-90
2024/01/25 01:49:42;;;;;;;;;;;;;;;;;;5101554;27;20054;-92
2024/01/25 01:52:08;;;;;;;41.75;5.90;;;;;;;;;;5099987;27;19920;-89
2024/01/25 01:54:34;;;;;;;29.17;4.80;;;;;;;;;;5083808;27;20096;-92
2024/01/25 01:57:00;;;;;;;;;;;;;;;;;;5107113;28;20048;-91
2024/01/25 01:59:26;;;;;;;31.58;4.97;;;;;;;;;;5080209;28;19926;-92
2024/01/25 02:01:52;;;;;;;;;;;;;;;;;;5072749;28;20108;-92
2024/01/25 02:04:18;;;;;;;24.70;4.15;;;;;;;;;;5096990;28;19923;-92
2024/01/25 02:06:45;;;;;;;31.98;4.97;;;;;;;;;;5078422;28;20044;-92
2024/01/25 02:09:12;;;;;;;30.48;5.65;;;;;;;;;;5081938;27;20048;-90
2024/01/25 02:11:38;;;;;;;28.13;4.47;;;;;;;;;;5100173;27;20050;-92
2024/01/25 02:14:05;;;;;;;40.63;5.07;;;;;;;;;;5100972;27;20043;-92
2024/01/25 02:16:31;;;;;;;31.40;5.05;;;;;;;;;;5093891;28;20126;-92
2024/01/25 02:18:57;;;;;;;39.70;5.63;;;;;;;;;;5097560;28;20035;-92
2024/01/25 02:21:23;;;;;;;34.83;5.20;;;;;;;;;;5095389;28;20054;-93
2024/01/25 02:23:50;;;;;;;44.67;5.57;;;;;;;;;;5091822;27;20557;-92
2024/01/25 02:26:16;;;;;;;37.85;5.55;;;;;;;;;;5100236;27;20035;-87
2024/01/25 02:28:42;;;;;;;;;;;;;;;;;;5100982;27;20139;-91
2024/01/25 02:31:08;;;;;;;34.72;5.35;;;;;;;;;;5094185;28;20400;-92
2024/01/25 02:33:34;;;;;;;41.85;5.75;;;;;;;;;;5079894;28;20043;-92
2024/01/25 02:36:00;;;;;;;35.58;4.47;;;;;;;;;;5061897;28;20044;-92
2024/01/25 02:38:26;;;;;;;38.25;4.78;;;;;;;;;;5079886;28;20242;-92
2024/01/25 02:40:56;;;;;;;33.92;4.93;;;;;;;;;;5096720;28;20040;-92
2024/01/25 02:43:22;;;;;;;34.20;4.68;;;;;;;;;;5079278;27;20047;-90
2024/01/25 02:45:48;;;;;;;;;;;;;;;;;;5092623;28;20044;-91
2024/01/25 02:48:15;;;;;;;38.28;4.40;;;;;;;;;;5080262;28;19919;-92
2024/01/25 02:50:41;;;;;;;31.50;4.55;;;;;;;;;;5094967;28;20050;-92
2024/01/25 02:53:07;;;;;;;34.90;7.03;;;;;;;;;;5101912;27;20055;-92
2024/01/25 02:55:33;;;;;;;46.10;5.45;;;;;;;;;;5116290;27;20088;-92
2024/01/25 02:57:59;;;;;;;30.33;4.18;;;;;;;;;;5100029;27;20043;-92
2024/01/25 03:00:25;;;;;;;;;;;;;;;;;;5099552;27;20047;-90
2024/01/25 03:02:51;;;;;;;33.28;4.78;;;;;;;;;;5116158;27;19941;-92
2024/01/25 03:05:17;;;;;;;;;;;;;;;;;;5114876;27;20047;-92
2024/01/25 03:07:44;;;;;;;34.50;5.30;;;;;;;;;;5097806;28;19916;-92
2024/01/25 03:10:09;;;;;;;;;;;;;;;;;;5083752;27;20068;-93
2024/01/25 03:12:36;;;;;;;34.85;5.47;;;;;;;;;;5091057;28;19919;-92
2024/01/25 03:15:02;;;;;;;32.70;4.57;;;;;;;;;;5096002;28;20044;-92
2024/01/25 03:17:28;;;;;;;;;;;;;;;;;;5091044;27;20480;-89
2024/01/25 03:19:54;;;;;;;32.55;4.43;;;;;;;;;;5115665;27;19923;-92
2024/01/25 03:22:20;;;;;;;42.15;5.07;;;;;;;;;;5115927;27;20043;-92
2024/01/25 03:24:46;;;;;;;35.92;5.40;;;;;;;;;;5115567;27;20047;-91
2024/01/25 03:27:14;;;;;;;38.88;5.43;;;;;;;;;;5081345;27;20146;-92
2024/01/25 03:29:43;;;;;;;34.00;4.28;;;;;;;;;;5078794;28;20134;-92
2024/01/25 03:32:10;;;;;;;44.15;5.10;;;;;;;;;;5061668;28;20087;-91
2024/01/25 03:34:36;;;;;;;34.13;6.07;;;;;;;;;;5098685;27;20551;-90
2024/01/25 03:37:02;;;;;;;;;;;;;;;;;;5115194;27;20054;-91
2024/01/25 03:39:28;;;;;;;41.80;4.53;;;;;;;;;;5082639;28;19998;-87
2024/01/25 03:41:54;;;;;;;48.28;6.60;;;;;;;;;;5079133;28;20051;-92
2024/01/25 03:44:20;;;;;;;40.90;5.03;;;;;;;;;;5087310;27;20061;-91
2024/01/25 03:46:46;;;;;;;;;;;;;;;;;;5097483;28;20045;-89
2024/01/25 03:49:12;;;;;;;40.95;5.30;;;;;;;;;;5095332;27;20471;-91
2024/01/25 03:51:38;;;;;;;;;;;;;;;;;;5114059;27;20050;-91
2024/01/25 03:54:04;;;;;;;35.30;6.95;;;;;;;;;;5114968;27;20014;-92
2024/01/25 03:56:30;;;;;;;31.15;4.93;;;;;;;;;;5098724;27;20433;-86
2024/01/25 03:58:56;;;;;;;35.75;4.70;;;;;;;;;;5099022;28;20058;-92
2024/01/25 04:01:22;;;;;;;43.60;6.05;;;;;;;;;;5115720;28;20134;-92
2024/01/25 04:03:48;;;;;;;34.45;5.40;;;;;;;;;;5098414;28;20055;-92
2024/01/25 04:06:15;;;;;;;33.83;5.28;;;;;;;;;;5097522;28;20075;-92
2024/01/25 04:08:41;;;;;;;30.65;4.80;;;;;;;;;;5110194;28;20054;-92
2024/01/25 04:11:09;;;;;;;33.80;4.72;;;;;;;;;;5062367;28;20142;-92
2024/01/25 04:13:35;;;;;;;34.72;5.10;;;;;;;;;;5094706;28;20058;-90
2024/01/25 04:16:01;;;;;;;;;;;;;;;;;;5095239;28;20043;-92
2024/01/25 04:18:27;;;;;;;39.72;5.25;;;;;;;;;;5095510;28;19946;-92
2024/01/25 04:20:53;;;;;;;36.30;5.18;;;;;;;;;;5076886;28;20188;-92
2024/01/25 04:23:19;;;;;;;36.70;5.80;;;;;;;;;;5095519;28;20105;-93
2024/01/25 04:25:45;;;;;;;45.33;5.72;;;;;;;;;;5094831;28;20089;-91
2024/01/25 04:28:11;;;;;;;;;;;;;;;;;;5079084;28;20048;-92
2024/01/25 04:30:37;;;;;;;32.95;4.95;;;;;;;;;;5094539;28;20262;-89
2024/01/25 04:33:03;;;;;;;34.28;5.80;;;;;;;;;;5078830;28;20486;-91
2024/01/25 04:35:31;;;;;;;;;;;;;;;;;;5077520;28;20048;-92
2024/01/25 04:37:57;;;;;;;32.72;4.70;;;;;;;;;;5098661;28;19923;-92
2024/01/25 04:40:23;;;;;;;34.60;6.07;;;;;;;;;;5098647;28;20050;-92
2024/01/25 04:42:49;;;;;;;;;;;;;;;;;;5104303;28;20046;-92
2024/01/25 04:45:15;;;;;;;37.67;6.55;;;;;;;;;;5095125;28;19919;-92
2024/01/25 04:47:41;;;;;;;34.90;4.82;;;;;;;;;;5094283;28;20131;-91
2024/01/25 04:50:07;;;;;;;;;;;;;;;;;;5094584;28;20051;-92
2024/01/25 04:52:33;;;;;;;32.85;4.78;;;;;;;;;;5095430;28;19920;-93
2024/01/25 04:54:59;;;;;;;26.77;4.53;;;;;;;;;;5061518;28;20468;-92
2024/01/25 04:57:25;;;;;;;;;;;;;;;;;;5087114;28;20102;-91
2024/01/25 04:59:51;;;;;;;40.03;5.50;;;;;;;;;;5112662;28;20364;-92
2024/01/25 05:02:17;;;;;;;;;;;;;;;;;;5078452;28;20044;-91
2024/01/25 05:04:43;;;;;;;34.05;4.93;;;;;;;;;;5077111;28;19968;-92
2024/01/25 05:07:09;;;;;;;;;;;;;;;;;;5096984;28;20054;-92
2024/01/25 05:09:35;;;;;;;37.75;5.63;;;;;;;;;;5081586;28;19920;-91
2024/01/25 05:12:02;;;;;;;28.38;4.95;;;;;;;;;;5081424;28;20081;-92
2024/01/25 05:14:28;;;;;;;30.08;5.13;;;;;;;;;;5098577;28;20050;-92
2024/01/25 05:16:54;;;;;;;49.42;5.57;;;;;;;;;;5097603;28;20047;-90
2024/01/25 05:19:20;;;;;;;31.52;4.68;;;;;;;;;;5086490;28;20055;-92
2024/01/25 05:21:46;;;;;;;34.78;4.80;;;;;;;;;;5096613;28;20043;-90
2024/01/25 05:24:12;;;;;;;34.20;4.93;;;;;;;;;;5099388;27;20486;-91
2024/01/25 05:26:39;;;;;;;32.30;4.68;;;;;;;;;;5100246;27;20039;-91
2024/01/25 05:29:05;;;;;;;41.50;5.97;;;;;;;;;;5097790;28;20685;-92
2024/01/25 05:31:31;;;;;;;37.75;4.53;;;;;;;;;;5097880;28;20040;-92
2024/01/25 05:33:57;;;;;;;;;;;;;;;;;;5098297;28;20054;-92
2024/01/25 05:36:23;;;;;;;32.42;5.53;;;;;;;;;;5079851;28;19920;-92
2024/01/25 05:38:49;;;;;;;33.90;5.38;;;;;;;;;;5084052;27;20109;-92
2024/01/25 05:41:15;;;;;;;40.75;6.32;;;;;;;;;;5101734;27;20047;-92
2024/01/25 05:43:41;;;;;;;33.45;5.40;;;;;;;;;;5113186;27;20071;-91
2024/01/25 05:46:09;;;;;;;43.60;5.03;;;;;;;;;;5117713;27;20039;-91
2024/01/25 05:48:35;;;;;;;23.83;4.07;;;;;;;;;;5118584;27;20050;-91
2024/01/25 05:51:01;;;;;;;40.22;5.25;;;;;;;;;;5099403;27;20481;-92
2024/01/25 05:53:27;;;;;;;;;;;;;;;;;;5085068;27;20050;-92
2024/01/25 05:55:53;;;;;;;35.13;5.32;;;;;;;;;;5100318;27;19942;-91
2024/01/25 05:58:19;;;;;;;;;;;;;;;;;;5116025;27;20050;-93
2024/01/25 06:00:45;;;;;;;40.97;5.07;;;;;;;;;;5083704;27;21081;-91
2024/01/25 06:03:11;;;;;;;40.13;5.82;;;;;;;;;;5100944;27;20054;-92
2024/01/25 06:05:37;;;;;;;37.85;4.93;;;;;;;;;;5081920;27;20143;-91
2024/01/25 06:08:03;;;;;;;37.10;4.85;;;;;;;;;;5100317;27;20047;-92
2024/01/25 06:10:30;;;;;;;41.42;5.60;;;;;;;;;;5111845;28;20044;-92
2024/01/25 06:12:56;;;;;;;34.53;5.60;;;;;;;;;;5080584;28;20079;-91
2024/01/25 06:15:22;;;;;;;;;;;;;;;;;;5097668;28;20495;-91
2024/01/25 06:17:48;;;;;;;39.75;5.72;;;;;;;;;;5113088;28;19919;-88
2024/01/25 06:20:14;;;;;;;;;;;;;;;;;;5079223;28;20048;-91
2024/01/25 06:22:40;;;;;;;38.75;5.25;;;;;;;;;;5094668;27;20033;-92
2024/01/25 06:25:06;;;;;;;46.83;5.60;;;;;;;;;;5083589;27;20095;-90
2024/01/25 06:27:32;;;;;;;43.97;6.60;;;;;;;;;;5080081;28;20046;-92
2024/01/25 06:29:58;;;;;;;;;;;;;;;;;;5079993;28;20164;-91
2024/01/25 06:32:24;;;;;;;39.70;6.80;;;;;;;;;;5097034;28;19963;-93
2024/01/25 06:34:50;;;;;;;46.47;6.20;;;;;;;;;;5096160;28;20090;-88
2024/01/25 06:37:18;;;;;;;42.47;5.63;;;;;;;;;;5096224;28;20054;-91
2024/01/25 06:39:44;;;;;;;46.60;6.32;;;;;;;;;;5097119;28;20090;-92
2024/01/25 06:42:10;;;;;;;41.97;7.65;;;;;;;;;;5096454;28;20207;-92
2024/01/25 06:44:37;;;;;;;36.28;5.75;;;;;;;;;;5098895;27;20551;-92
2024/01/25 06:47:03;;;;;;;48.03;5.63;;;;;;;;;;5116353;27;20080;-90
2024/01/25 06:49:29;;;;;;;;;;;;;;;;;;5096050;28;20051;-91
2024/01/25 06:51:55;;;;;;;54.75;6.65;;;;;;;;;;5094570;28;19956;-92
2024/01/25 06:54:22;;;;;;;40.75;5.13;;;;;;;;;;5063355;28;20138;-92
2024/01/25 06:56:49;;;;;;;40.45;5.30;;;;;;;;;;5079512;28;20047;-92
2024/01/25 06:59:15;;;;;;;56.75;6.07;;;;;;;;;;5096551;28;20480;-92
2024/01/25 07:01:41;;;;;;;;;;;;;;;;;;5090201;28;20043;-92
2024/01/25 07:04:07;;;;;;;43.42;5.80;;;;;;;;;;5078800;28;19973;-92
2024/01/25 07:06:33;;;;;;;34.28;4.88;;;;;;;;;;5104548;27;20053;-91
2024/01/25 07:08:59;;;;;;;37.03;5.20;;;;;;;;;;5115636;27;20142;-92
2024/01/25 07:11:25;;;;;;;36.95;6.25;;;;;;;;;;5082733;27;20047;-93
2024/01/25 07:13:52;;;;;;;32.80;5.18;;;;;;;;;;5113072;27;20047;-89
2024/01/25 07:16:19;;;;;;;39.42;5.55;;;;;;;;;;5092396;28;20043;-92
2024/01/25 07:18:45;;;;;;;34.95;5.57;;;;;;;;;;5079579;28;20043;-92
2024/01/25 07:21:11;;;;;;;;;;;;;;;;;;5100002;27;20074;-91
2024/01/25 07:23:37;;;;;;;44.63;7.07;;;;;;;;;;5116502;27;20046;-91
2024/01/25 07:26:03;;;;;;;40.20;5.45;;;;;;;;;;5114882;27;20046;-91
2024/01/25 07:28:29;;;;;;;;;;;;;;;;;;5095624;28;20047;-88
2024/01/25 07:30:55;;;;;;;39.58;4.88;;;;;;;;;;5078338;28;20264;-89
2024/01/25 07:33:21;;;;;;;40.47;5.18;;;;;;;;;;5078802;28;20039;-87
2024/01/25 07:35:48;;;;;;;;;;;;;;;;;;5094755;28;20473;-91
2024/01/25 07:38:14;;;;;;;28.27;4.57;;;;;;;;;;5078233;28;19968;-92
2024/01/25 07:40:40;;;;;;;36.90;4.72;;;;;;;;;;5078601;28;20079;-93
2024/01/25 07:43:06;;;;;;;;;;;;;;;;;;5108536;28;20039;-96
2024/01/25 07:45:33;;;;;;;38.65;5.28;;;;;;;;;;5079076;28;19971;-94
2024/01/25 07:47:59;;;;;;;42.72;5.72;;;;;;;;;;5095722;28;20048;-92
2024/01/25 07:50:25;;;;;;;44.42;5.47;;;;;;;;;;5078557;28;20043;-96
2024/01/25 07:52:51;;;;;;;;;;;;;;;;;;5080049;28;20051;-93
2024/01/25 07:55:17;;;;;;;39.53;5.00;;;;;;;;;;5092895;27;19930;-90
2024/01/25 07:57:44;;;;;;;33.15;5.13;;;;;;;;;;5088653;28;20122;-90
2024/01/25 08:00:10;;;;;;;28.88;4.60;;;;;;;;;;5080117;28;20085;-88
2024/01/25 08:02:38;;;;;;;53.70;7.82;;;;;;;;;;5098409;28;20496;-84
2024/01/25 08:05:05;;;;;;;53.38;7.90;;;;;;;;;;5096562;28;20062;-85
2024/01/25 08:07:33;;;;;;;41.70;5.68;;;;;;;;;;5115107;28;20516;-95
2024/01/25 08:09:59;;;;;;;46.75;7.72;;;;;;;;;;5115959;28;20472;-92
2024/01/25 08:12:25;;;;;;;;;;;;;;;;;;5116006;28;20476;-94
2024/01/25 08:14:51;;;;;;;47.10;5.80;;;;;;;;;;5088365;28;19919;-87
2024/01/25 08:17:17;;;;;;;55.75;7.95;;;;;;;;;;5082776;28;20042;-89
2024/01/25 08:19:44;;;;;;;51.50;7.57;;;;;;;;;;5077393;28;20044;-83
2024/01/25 08:22:10;;;;;;;48.92;5.78;;;;;;;;;;5092491;28;20477;-86
2024/01/25 08:24:36;;;;;;;;;;;;;;;;;;5078529;28;20523;-85
2024/01/25 08:27:02;;;;;;;44.20;5.70;;;;;;;;;;5114436;28;19966;-84
2024/01/25 08:29:28;;;;;;;;;;;;;;;;;;5115404;28;20092;-87
2024/01/25 08:31:54;;;;;;;48.97;6.85;;;;;;;;;;5093604;28;19919;-88
2024/01/25 08:34:21;;;;;;;37.92;6.13;;;;;;;;;;5095079;28;20135;-88
2024/01/25 08:36:47;;;;;;;46.03;5.30;;;;;;;;;;5093988;28;20097;-89
2024/01/25 08:39:14;;;;;;;;;;;;;;;;;;5095374;28;20047;-90
2024/01/25 08:41:41;;;;;;;42.92;6.47;;;;;;;;;;5097598;28;19980;-89
2024/01/25 08:44:07;;;;;;;45.78;6.60;;;;;;;;;;5085175;27;20050;-88
2024/01/25 08:46:33;;;;;;;38.53;5.78;;;;;;;;;;5082485;28;20044;-89
2024/01/25 08:48:59;;;;;;;36.97;6.40;;;;;;;;;;5065604;28;20098;-89
2024/01/25 08:51:25;;;;;;;55.80;6.97;;;;;;;;;;5064070;28;20050;-89
2024/01/25 08:53:51;;;;;;;46.90;6.40;;;;;;;;;;5082318;28;20096;-89
2024/01/25 08:56:17;;;;;;;;;;;;;;;;;;5079545;28;20048;-90
2024/01/25 08:58:43;;;;;;;52.90;7.25;;;;;;;;;;5081936;28;20046;-89
2024/01/25 09:01:09;;;;;;;;;;;;;;;;;;5081765;28;20059;-90
2024/01/25 09:03:35;;;;;;;42.22;6.95;;;;;;;;;;5098650;28;19919;-88
2024/01/25 09:06:05;;;;;;;;;;;;;;;;;;5093764;27;20500;-89
2024/01/25 09:08:31;;;;;;;46.85;5.45;;;;;;;;;;5118963;27;19972;-89
2024/01/25 09:10:58;;;;;;;37.17;4.93;;;;;;;;;;5081519;28;20047;-90
2024/01/25 09:13:24;;;;;;;40.92;6.53;;;;;;;;;;5099866;27;20036;-89
2024/01/25 09:15:50;;;;;;;;;;;;;;;;;;5097547;27;20059;-88
2024/01/25 09:18:16;;;;;;;45.67;5.82;;;;;;;;;;5094641;28;19920;-89
2024/01/25 09:20:47;;;;;;;40.88;6.38;;;;;;;;;;5087635;28;20047;-87
2024/01/25 09:23:15;;;;;;;53.33;7.28;;;;;;;;;;5100722;27;20046;-89
2024/01/25 09:25:41;;;;;;;52.47;7.05;;;;;;;;;;5081449;27;20496;-89
2024/01/25 09:28:07;;;;;;;47.42;7.18;;;;;;;;;;5089303;28;20036;-88
2024/01/25 09:30:34;;;;;;;36.00;6.38;;;;;;;;;;5092475;27;20047;-88
2024/01/25 09:33:00;;;;;;;50.33;7.43;;;;;;;;;;5085026;28;20048;-89
2024/01/25 09:35:26;;;;;;;;;;;;;;;;;;5087326;27;20043;-88
2024/01/25 09:37:52;;;;;;;41.08;6.60;;;;;;;;;;5105307;27;19920;-88
2024/01/25 09:40:20;;;;;;;47.83;6.13;;;;;;;;;;5091868;27;20039;-87
2024/01/25 09:42:50;;;;;;;38.85;5.68;;;;;;;;;;5104581;27;20400;-88
2024/01/25 09:45:18;;;;;;;58.45;6.93;;;;;;;;;;5082591;28;20051;-87
2024/01/25 09:47:44;;;;;;;43.72;7.43;;;;;;;;;;5106061;27;20519;-93
2024/01/25 09:50:10;;;;;;;34.75;6.72;;;;;;;;;;5110204;27;20071;-87
2024/01/25 09:52:36;;;;;;;36.35;6.25;;;;;;;;;;5080008;27;20051;-89
2024/01/25 09:55:02;;;;;;;;;;;;;;;;;;5088047;27;20063;-90
2024/01/25 09:57:29;;;;;;;47.40;6.65;;;;;;;;;;5109253;28;19924;-89
2024/01/25 09:59:55;;;;;;;37.10;6.00;;;;;;;;;;5092058;27;20044;-89
2024/01/25 10:02:21;;;;;;;41.92;6.78;;;;;;;;;;5117399;27;20039;-90
2024/01/25 10:04:47;;;;;;;;;;;;;;;;;;5097043;27;20108;-89
2024/01/25 10:07:13;;;;;;;40.35;7.05;;;;;;;;;;5099260;28;19919;-86
2024/01/25 10:09:39;;;;;;;;;;;;;;;;;;5073642;28;20043;-88
2024/01/25 10:12:06;;;;;;;38.30;6.05;;;;;;;;;;5113783;28;20360;-88
2024/01/25 10:14:32;;;;;;;38.83;6.30;;;;;;;;;;5096259;28;20036;-88
2024/01/25 10:16:59;;;;;;;47.85;6.32;;;;;;;;;;5079654;28;20476;-87
2024/01/25 10:19:27;;;;;;;34.72;6.35;;;;;;;;;;5079490;28;20055;-87
2024/01/25 10:21:53;;;;;;;34.00;6.68;;;;;;;;;;5080360;28;20036;-88
2024/01/25 10:24:19;;;;;;;39.45;6.25;;;;;;;;;;5074719;27;20047;-82
2024/01/25 10:26:45;;;;;;;40.13;7.65;;;;;;;;;;5099327;27;20070;-87
2024/01/25 10:29:11;;;;;;;;;;;;;;;;;;5082520;27;20095;-88
2024/01/25 10:31:42;;;;;;;41.63;7.03;;;;;;;;;;5095949;28;20198;-82
2024/01/25 10:34:12;;;;;;;32.13;7.20;;;;;;;;;;5096524;28;20043;-87
2024/01/25 10:36:41;;;;;;;31.05;6.35;;;;;;;;;;5088071;27;20172;-90
2024/01/25 10:39:07;;;;;;;47.60;6.40;;;;;;;;;;5089267;27;20405;-89
2024/01/25 10:41:34;;;;;;;37.47;6.05;;;;;;;;;;5102777;27;20464;-86
2024/01/25 10:44:01;;;;;;;40.92;6.80;;;;;;;;;;5097802;27;20046;-88
2024/01/25 10:46:28;;;;;;;44.53;7.28;;;;;;;;;;5079087;28;20082;-89
2024/01/25 10:48:58;;;;;;;40.30;6.35;;;;;;;;;;5067142;27;20054;-88
2024/01/25 10:51:25;;;;;;;45.38;7.20;;;;;;;;;;5101427;27;20065;-88
2024/01/25 10:53:52;;;;;;;37.28;6.95;;;;;;;;;;5106774;27;20088;-90
2024/01/25 10:56:18;;;;;;;45.97;6.60;;;;;;;;;;5083902;28;20473;-86
2024/01/25 10:58:44;;;;;;;;;;;;;;;;;;5093114;27;20047;-89
2024/01/25 11:01:11;;;;;;;39.33;6.13;;;;;;;;;;5116103;27;19919;-88
2024/01/25 11:03:40;;;;;;;42.50;6.05;;;;;;;;;;5098135;27;20100;-91
2024/01/25 11:06:08;;;;;;;42.10;6.28;;;;;;;;;;5098607;27;20054;-92
2024/01/25 11:08:34;;;;;;;36.15;5.85;;;;;;;;;;5078350;28;20046;-91
2024/01/25 11:11:00;;;;;;;;;;;;;;;;;;5084887;28;20126;-87
2024/01/25 11:13:29;;;;;;;34.35;6.38;;;;;;;;;;5106554;27;19963;-91
2024/01/25 11:15:55;;;;;;;38.08;7.40;;;;;;;;;;5091054;27;20050;-91
2024/01/25 11:18:25;;;;;;;49.15;6.82;;;;;;;;;;5113167;27;20130;-85
2024/01/25 11:20:52;;;;;;;36.92;6.10;;;;;;;;;;5097346;27;20112;-89
2024/01/25 11:23:18;;;;;;;36.63;6.80;;;;;;;;;;5081911;27;20038;-87
2024/01/25 11:25:44;;;;;;;;;;;;;;;;;;5086584;28;20043;-88
2024/01/25 11:28:11;;;;;;;34.55;6.68;;;;;;;;;;5097322;28;19920;-86
2024/01/25 11:30:37;;;;;;;33.25;6.00;;;;;;;;;;5106619;28;20164;-89
2024/01/25 11:33:10;;;;;;;30.80;6.22;;;;;;;;;;5077162;27;20476;-88
2024/01/25 11:35:36;;;;;;;36.55;6.78;;;;;;;;;;5110164;27;20130;-88
2024/01/25 11:38:03;;;;;;;35.08;6.95;;;;;;;;;;5094923;27;20039;-87
2024/01/25 11:40:31;;;;;;;35.13;7.03;;;;;;;;;;5105919;27;20047;-85
2024/01/25 11:42:57;;;;;;;34.67;6.30;;;;;;;;;;5100315;27;20173;-87
2024/01/25 11:45:23;;;;;;;30.73;5.90;;;;;;;;;;5083791;28;20061;-88
2024/01/25 11:47:49;;;;;;;;;;;;;;;;;;5110394;27;20039;-86
2024/01/25 11:50:15;;;;;;;40.85;6.35;;;;;;;;;;5088265;28;19926;-86
2024/01/25 11:52:42;;;;;;;35.63;6.78;;;;;;;;;;5093944;28;20054;-87
2024/01/25 11:55:08;;;;;;;;;;;;;;;;;;5099420;28;20077;-87
2024/01/25 11:57:41;;;;;;;35.70;6.28;;;;;;;;;;5098350;27;20315;-87
2024/01/25 12:00:09;;;;;;;35.75;7.10;;;;;;;;;;5095320;28;20079;-88
2024/01/25 12:02:35;;;;;;;40.38;6.07;;;;;;;;;;5087836;28;20476;-85
2024/01/25 12:05:02;;;;;;;35.30;5.68;;;;;;;;;;5102050;28;20054;-83
2024/01/25 12:07:30;;;;;;;35.00;6.03;;;;;;;;;;5090306;28;20427;-84
2024/01/25 12:10:00;;;;;;;39.20;6.35;;;;;;;;;;5100654;28;20043;-87
2024/01/25 12:12:26;;;;;;;41.30;5.75;;;;;;;;;;5095147;28;20048;-89
2024/01/25 12:14:52;;;;;;;35.78;6.55;;;;;;;;;;5068302;28;20076;-86
2024/01/25 12:17:18;;;;;;;34.42;6.57;;;;;;;;;;5095217;28;20066;-85
2024/01/25 12:19:44;;;;;;;;;;;;;;;;;;5088462;28;20044;-85
2024/01/25 12:22:10;;;;;;;32.85;7.05;;;;;;;;;;5099002;28;19926;-86
2024/01/25 12:24:36;;;;;;;50.50;6.85;;;;;;;;;;5097778;28;20559;-85
2024/01/25 12:27:02;;;;;;;;;;;;;;;;;;5099064;28;20058;-86
2024/01/25 12:29:28;;;;;;;33.17;7.05;;;;;;;;;;5098936;28;20360;-86
2024/01/25 12:31:54;;;;;;;30.40;6.13;;;;;;;;;;5077513;28;20055;-86
2024/01/25 12:34:20;;;;;;;;;;;;;;;;;;5090603;28;20043;-86
2024/01/25 12:36:46;;;;;;;30.92;6.03;;;;;;;;;;5093524;28;19940;-86
2024/01/25 12:39:14;;;;;;;31.77;6.20;;;;;;;;;;5073445;28;20048;-86
2024/01/25 12:41:40;;;;;;;39.78;6.65;;;;;;;;;;5093050;28;20044;-86
2024/01/25 12:44:07;;;;;;;35.60;6.65;;;;;;;;;;5103912;28;20088;-86
2024/01/25 12:46:33;;;;;;;33.13;5.53;;;;;;;;;;5093615;28;20119;-85
2024/01/25 12:48:59;;;;;;;37.80;5.85;;;;;;;;;;5094333;28;20122;-86
2024/01/25 12:51:25;;;;;;;;;;;;;;;;;;5113350;28;20516;-85
2024/01/25 12:53:51;;;;;;;42.75;6.38;;;;;;;;;;5114822;28;19919;-86
2024/01/25 12:56:17;;;;;;;;;;;;;;;;;;5115583;28;20036;-86
2024/01/25 12:58:43;;;;;;;32.67;6.43;;;;;;;;;;5114858;28;20022;-87
2024/01/25 13:01:09;;;;;;;;;;;;;;;;;;5098118;28;20047;-87
2024/01/25 13:03:35;;;;;;;29.27;5.82;;;;;;;;;;5098416;28;19972;-86
2024/01/25 13:06:03;;;;;;;;;;;;;;;;;;5104858;28;20511;-86
2024/01/25 13:08:29;;;;;;;40.17;6.43;;;;;;;;;;5096146;28;19924;-84
2024/01/25 13:10:55;;;;;;;;;;;;;;;;;;5077753;28;20165;-85
2024/01/25 13:13:21;;;;;;;33.30;6.57;;;;;;;;;;5077836;28;20373;-85
2024/01/25 13:15:47;;;;;;;37.17;5.85;;;;;;;;;;5076994;28;20047;-86
2024/01/25 13:18:13;;;;;;;27.58;5.85;;;;;;;;;;5094538;28;20193;-86
2024/01/25 13:20:39;;;;;;;31.70;6.05;;;;;;;;;;5093442;28;20044;-85
2024/01/25 13:23:06;;;;;;;;;;;;;;;;;;5077394;28;20055;-85
2024/01/25 13:25:32;;;;;;;30.38;6.15;;;;;;;;;;5077255;28;19927;-85
2024/01/25 13:27:58;;;;;;;;;;;;;;;;;;5077751;28;20040;-86
2024/01/25 13:30:24;;;;;;;28.33;5.63;;;;;;;;;;5114168;28;19920;-85
2024/01/25 13:32:50;;;;;;;29.45;5.20;;;;;;;;;;5111610;28;20557;-86
2024/01/25 13:35:16;;;;;;;;;;;;;;;;;;5093403;28;20047;-86
2024/01/25 13:37:42;;;;;;;29.00;4.88;;;;;;;;;;5077352;28;20053;-85
2024/01/25 13:40:08;;;;;;;;;;;;;;;;;;5094286;28;20044;-86
2024/01/25 13:42:34;;;;;;;28.50;4.72;;;;;;;;;;5077224;28;20014;-85
2024/01/25 13:45:00;;;;;;;;;;;;;;;;;;5093715;28;20144;-85
2024/01/25 13:47:27;;;;;;;35.47;5.68;;;;;;;;;;5077003;28;20002;-86
2024/01/25 13:49:53;;;;;;;31.77;6.25;;;;;;;;;;5076716;28;20052;-85
2024/01/25 13:52:19;;;;;;;28.40;6.60;;;;;;;;;;5110135;28;20119;-85
2024/01/25 13:54:46;;;;;;;39.22;7.07;;;;;;;;;;5076905;28;20504;-86
2024/01/25 13:57:12;;;;;;;36.60;7.15;;;;;;;;;;5109743;28;20086;-83
2024/01/25 13:59:38;;;;;;;;;;;;;;;;;;5077014;28;20044;-86
2024/01/25 14:02:04;;;;;;;40.20;6.32;;;;;;;;;;5083447;28;19920;-87
2024/01/25 14:04:30;;;;;;;;;;;;;;;;;;5077184;28;20109;-87
2024/01/25 14:06:56;;;;;;;30.27;6.35;;;;;;;;;;5074643;28;19920;-87
2024/01/25 14:09:22;;;;;;;38.10;7.03;;;;;;;;;;5082713;28;20050;-90
2024/01/25 14:11:48;;;;;;;;;;;;;;;;;;5114724;28;20044;-85
2024/01/25 14:14:14;;;;;;;32.28;5.95;;;;;;;;;;5114188;28;19920;-86
2024/01/25 14:16:40;;;;;;;;;;;;;;;;;;5079968;28;20130;-87
2024/01/25 14:19:06;;;;;;;33.72;6.75;;;;;;;;;;5096653;28;19926;-87
2024/01/25 14:21:32;;;;;;;;;;;;;;;;;;5081980;28;20544;-86
2024/01/25 14:23:58;;;;;;;33.33;5.88;;;;;;;;;;5101680;28;19924;-86
2024/01/25 14:26:24;;;;;;;27.58;5.20;;;;;;;;;;5105053;27;20046;-87
2024/01/25 14:28:50;;;;;;;;;;;;;;;;;;5117342;27;20046;-84
2024/01/25 14:31:16;;;;;;;31.15;5.88;;;;;;;;;;5131260;27;19919;-86
2024/01/25 14:33:43;;;;;;;36.63;5.40;;;;;;;;;;5111242;27;20444;-85
2024/01/25 14:36:09;;;;;;;;;;;;;;;;;;5097646;27;20082;-88
2024/01/25 14:38:35;;;;;;;29.98;6.18;;;;;;;;;;5128725;27;20318;-87
2024/01/25 14:41:01;;;;;;;29.58;5.72;;;;;;;;;;5099110;27;20096;-89
2024/01/25 14:43:27;;;;;;;34.65;5.75;;;;;;;;;;5116033;27;20110;-87
2024/01/25 14:45:53;;;;;;;;;;;;;;;;;;5123018;27;20071;-88
2024/01/25 14:48:19;;;;;;;29.85;5.55;;;;;;;;;;5120006;27;19962;-87
2024/01/25 14:50:45;;;;;;;38.95;5.65;;;;;;;;;;5119458;27;20031;-89